sensor_id;sensor_type;location;lat;lon;timestamp;P1;durP1;ratioP1;P2;durP2;ratioP2
31906;SDS011;18455;50.858;13.662;2023-02-24T00:04:36;70.37;;;32.33;;
31906;SDS011;18455;50.858;13.662;2023-02-24T00:09:38;73.27;;;31.37;;
31906;SDS011;18455;50.858;13.662;2023-02-24T00:14:39;70.50;;;31.27;;
31906;SDS011;18455;50.858;13.662;2023-02-24T00:19:43;69.83;;;31.87;;
31906;SDS011;18455;50.858;13.662;2023-02-24T00:24:45;57.77;;;27.27;;
31906;SDS011;18455;50.858;13.662;2023-02-24T00:29:45;44.90;;;23.90;;
31906;SDS011;18455;50.858;13.662;2023-02-24T00:34:46;44.13;;;23.50;;
31906;SDS011;18455;50.858;13.662;2023-02-24T00:39:47;45.13;;;24.33;;
31906;SDS011;18455;50.858;13.662;2023-02-24T00:44:47;46.77;;;24.73;;
31906;SDS011;18455;50.858;13.662;2023-02-24T00:49:48;50.63;;;25.60;;
31906;SDS011;18455;50.858;13.662;2023-02-24T00:54:49;51.67;;;26.57;;
31906;SDS011;18455;50.858;13.662;2023-02-24T00:59:49;45.57;;;25.73;;
31906;SDS011;18455;50.858;13.662;2023-02-24T01:04:52;44.40;;;25.97;;
31906;SDS011;18455;50.858;13.662;2023-02-24T01:09:53;53.53;;;27.17;;
31906;SDS011;18455;50.858;13.662;2023-02-24T01:14:53;50.47;;;27.47;;
31906;SDS011;18455;50.858;13.662;2023-02-24T01:19:54;49.47;;;25.17;;
31906;SDS011;18455;50.858;13.662;2023-02-24T01:24:59;56.70;;;28.07;;
31906;SDS011;18455;50.858;13.662;2023-02-24T01:29:59;45.97;;;24.07;;
31906;SDS011;18455;50.858;13.662;2023-02-24T01:35:02;50.17;;;25.47;;
31906;SDS011;18455;50.858;13.662;2023-02-24T01:40:03;49.73;;;26.87;;
31906;SDS011;18455;50.858;13.662;2023-02-24T01:45:12;55.37;;;26.67;;
31906;SDS011;18455;50.858;13.662;2023-02-24T01:50:15;54.93;;;26.63;;
31906;SDS011;18455;50.858;13.662;2023-02-24T01:55:22;48.47;;;25.60;;
31906;SDS011;18455;50.858;13.662;2023-02-24T02:00:27;43.57;;;23.37;;
31906;SDS011;18455;50.858;13.662;2023-02-24T02:05:38;42.13;;;22.40;;
31906;SDS011;18455;50.858;13.662;2023-02-24T02:10:40;46.43;;;22.63;;
31906;SDS011;18455;50.858;13.662;2023-02-24T02:15:46;42.40;;;21.90;;
31906;SDS011;18455;50.858;13.662;2023-02-24T02:21:17;42.67;;;21.43;;
31906;SDS011;18455;50.858;13.662;2023-02-24T02:26:57;37.10;;;20.60;;
31906;SDS011;18455;50.858;13.662;2023-02-24T02:32:11;35.20;;;20.10;;
31906;SDS011;18455;50.858;13.662;2023-02-24T02:37:33;41.37;;;20.90;;
31906;SDS011;18455;50.858;13.662;2023-02-24T02:42:39;36.47;;;20.97;;
31906;SDS011;18455;50.858;13.662;2023-02-24T02:52:57;31.67;;;18.27;;
31906;SDS011;18455;50.858;13.662;2023-02-24T02:57:59;31.77;;;16.83;;
31906;SDS011;18455;50.858;13.662;2023-02-24T03:03:04;33.37;;;18.97;;
31906;SDS011;18455;50.858;13.662;2023-02-24T03:08:09;36.90;;;19.60;;
31906;SDS011;18455;50.858;13.662;2023-02-24T03:13:10;35.57;;;17.73;;
31906;SDS011;18455;50.858;13.662;2023-02-24T03:18:20;32.77;;;17.83;;
31906;SDS011;18455;50.858;13.662;2023-02-24T03:23:29;39.57;;;19.53;;
31906;SDS011;18455;50.858;13.662;2023-02-24T03:28:36;37.00;;;18.93;;
31906;SDS011;18455;50.858;13.662;2023-02-24T03:33:41;37.37;;;19.03;;
31906;SDS011;18455;50.858;13.662;2023-02-24T03:38:48;36.13;;;17.67;;
31906;SDS011;18455;50.858;13.662;2023-02-24T03:43:49;30.33;;;16.03;;
31906;SDS011;18455;50.858;13.662;2023-02-24T03:48:51;33.27;;;16.70;;
31906;SDS011;18455;50.858;13.662;2023-02-24T03:54:00;32.70;;;17.27;;
31906;SDS011;18455;50.858;13.662;2023-02-24T03:59:25;36.07;;;17.63;;
31906;SDS011;18455;50.858;13.662;2023-02-24T04:04:35;38.20;;;16.87;;
31906;SDS011;18455;50.858;13.662;2023-02-24T04:10:09;29.20;;;14.17;;
31906;SDS011;18455;50.858;13.662;2023-02-24T04:20:38;11.63;;;6.73;;
31906;SDS011;18455;50.858;13.662;2023-02-24T04:25:42;10.40;;;6.27;;
31906;SDS011;18455;50.858;13.662;2023-02-24T04:30:44;11.80;;;7.30;;
31906;SDS011;18455;50.858;13.662;2023-02-24T04:35:50;14.27;;;7.53;;
31906;SDS011;18455;50.858;13.662;2023-02-24T04:40:53;13.17;;;7.13;;
31906;SDS011;18455;50.858;13.662;2023-02-24T04:45:53;14.03;;;7.90;;
31906;SDS011;18455;50.858;13.662;2023-02-24T04:50:54;12.57;;;6.83;;
31906;SDS011;18455;50.858;13.662;2023-02-24T04:55:55;16.97;;;7.27;;
31906;SDS011;18455;50.858;13.662;2023-02-24T05:00:55;15.13;;;7.00;;
31906;SDS011;18455;50.858;13.662;2023-02-24T05:05:57;14.80;;;6.77;;
31906;SDS011;18455;50.858;13.662;2023-02-24T05:10:59;16.20;;;7.37;;
31906;SDS011;18455;50.858;13.662;2023-02-24T05:16:04;15.13;;;7.27;;
31906;SDS011;18455;50.858;13.662;2023-02-24T05:21:08;20.10;;;8.53;;
31906;SDS011;18455;50.858;13.662;2023-02-24T05:26:29;18.53;;;8.17;;
31906;SDS011;18455;50.858;13.662;2023-02-24T05:31:31;15.50;;;6.57;;
31906;SDS011;18455;50.858;13.662;2023-02-24T05:36:36;15.40;;;6.27;;
31906;SDS011;18455;50.858;13.662;2023-02-24T05:41:40;15.10;;;6.50;;
31906;SDS011;18455;50.858;13.662;2023-02-24T05:46:44;13.70;;;5.83;;
31906;SDS011;18455;50.858;13.662;2023-02-24T05:51:45;15.37;;;6.30;;
31906;SDS011;18455;50.858;13.662;2023-02-24T05:56:53;15.10;;;7.67;;
31906;SDS011;18455;50.858;13.662;2023-02-24T06:01:56;17.13;;;8.77;;
31906;SDS011;18455;50.858;13.662;2023-02-24T06:06:58;19.43;;;8.60;;
31906;SDS011;18455;50.858;13.662;2023-02-24T06:12:02;18.60;;;9.07;;
31906;SDS011;18455;50.858;13.662;2023-02-24T06:17:03;18.03;;;8.33;;
31906;SDS011;18455;50.858;13.662;2023-02-24T06:22:04;13.70;;;7.63;;
31906;SDS011;18455;50.858;13.662;2023-02-24T06:27:10;14.50;;;7.17;;
31906;SDS011;18455;50.858;13.662;2023-02-24T06:32:17;13.60;;;7.10;;
31906;SDS011;18455;50.858;13.662;2023-02-24T06:37:19;13.63;;;6.43;;
31906;SDS011;18455;50.858;13.662;2023-02-24T06:42:19;10.63;;;5.63;;
31906;SDS011;18455;50.858;13.662;2023-02-24T06:47:20;9.27;;;5.37;;
31906;SDS011;18455;50.858;13.662;2023-02-24T06:52:21;11.57;;;5.80;;
31906;SDS011;18455;50.858;13.662;2023-02-24T06:57:21;9.47;;;4.00;;
31906;SDS011;18455;50.858;13.662;2023-02-24T07:02:22;6.17;;;3.77;;
31906;SDS011;18455;50.858;13.662;2023-02-24T07:07:28;9.07;;;3.53;;
31906;SDS011;18455;50.858;13.662;2023-02-24T07:12:29;6.37;;;2.93;;
31906;SDS011;18455;50.858;13.662;2023-02-24T07:17:29;5.07;;;2.60;;
31906;SDS011;18455;50.858;13.662;2023-02-24T07:22:29;5.30;;;2.63;;
31906;SDS011;18455;50.858;13.662;2023-02-24T07:27:30;5.70;;;2.60;;
31906;SDS011;18455;50.858;13.662;2023-02-24T07:32:31;4.83;;;2.37;;
31906;SDS011;18455;50.858;13.662;2023-02-24T07:37:31;5.27;;;2.77;;
31906;SDS011;18455;50.858;13.662;2023-02-24T07:42:31;4.37;;;2.37;;
31906;SDS011;18455;50.858;13.662;2023-02-24T07:47:37;3.47;;;2.30;;
31906;SDS011;18455;50.858;13.662;2023-02-24T07:52:40;4.90;;;2.70;;
31906;SDS011;18455;50.858;13.662;2023-02-24T07:57:40;4.23;;;2.87;;
31906;SDS011;18455;50.858;13.662;2023-02-24T08:02:45;3.77;;;2.53;;
31906;SDS011;18455;50.858;13.662;2023-02-24T08:07:47;7.13;;;3.13;;
31906;SDS011;18455;50.858;13.662;2023-02-24T08:12:49;6.10;;;2.80;;
31906;SDS011;18455;50.858;13.662;2023-02-24T08:17:54;8.60;;;3.10;;
31906;SDS011;18455;50.858;13.662;2023-02-24T08:22:59;10.20;;;4.07;;
31906;SDS011;18455;50.858;13.662;2023-02-24T08:28:00;12.60;;;3.77;;
31906;SDS011;18455;50.858;13.662;2023-02-24T08:33:05;13.70;;;3.57;;
31906;SDS011;18455;50.858;13.662;2023-02-24T08:38:09;13.60;;;3.67;;
31906;SDS011;18455;50.858;13.662;2023-02-24T08:43:13;9.97;;;2.90;;
31906;SDS011;18455;50.858;13.662;2023-02-24T08:48:19;8.37;;;2.83;;
31906;SDS011;18455;50.858;13.662;2023-02-24T08:53:37;5.87;;;2.20;;
31906;SDS011;18455;50.858;13.662;2023-02-24T08:58:42;10.20;;;3.37;;
31906;SDS011;18455;50.858;13.662;2023-02-24T09:03:47;6.83;;;2.50;;
31906;SDS011;18455;50.858;13.662;2023-02-24T09:08:53;7.13;;;2.90;;
31906;SDS011;18455;50.858;13.662;2023-02-24T09:14:15;9.60;;;2.67;;
31906;SDS011;18455;50.858;13.662;2023-02-24T09:19:17;3.53;;;2.17;;
31906;SDS011;18455;50.858;13.662;2023-02-24T09:24:39;10.00;;;4.07;;
31906;SDS011;18455;50.858;13.662;2023-02-24T09:29:40;8.23;;;2.60;;
31906;SDS011;18455;50.858;13.662;2023-02-24T09:34:48;3.47;;;2.23;;
31906;SDS011;18455;50.858;13.662;2023-02-24T09:39:48;8.83;;;3.50;;
31906;SDS011;18455;50.858;13.662;2023-02-24T09:45:21;7.13;;;2.47;;
31906;SDS011;18455;50.858;13.662;2023-02-24T09:50:31;16.83;;;5.23;;
31906;SDS011;18455;50.858;13.662;2023-02-24T09:56:04;7.73;;;4.33;;
31906;SDS011;18455;50.858;13.662;2023-02-24T10:01:25;4.97;;;2.60;;
31906;SDS011;18455;50.858;13.662;2023-02-24T10:06:45;2.70;;;2.27;;
31906;SDS011;18455;50.858;13.662;2023-02-24T10:11:47;5.03;;;3.20;;
31906;SDS011;18455;50.858;13.662;2023-02-24T10:16:53;3.63;;;2.63;;
31906;SDS011;18455;50.858;13.662;2023-02-24T10:22:17;4.33;;;1.93;;
31906;SDS011;18455;50.858;13.662;2023-02-24T10:27:35;4.07;;;2.63;;
31906;SDS011;18455;50.858;13.662;2023-02-24T10:32:51;3.27;;;2.70;;
31906;SDS011;18455;50.858;13.662;2023-02-24T10:37:59;5.53;;;4.10;;
31906;SDS011;18455;50.858;13.662;2023-02-24T10:43:06;3.27;;;2.57;;
31906;SDS011;18455;50.858;13.662;2023-02-24T10:48:18;2.03;;;1.73;;
31906;SDS011;18455;50.858;13.662;2023-02-24T10:53:24;4.03;;;3.00;;
31906;SDS011;18455;50.858;13.662;2023-02-24T10:58:36;4.97;;;3.07;;
31906;SDS011;18455;50.858;13.662;2023-02-24T11:03:38;3.87;;;3.47;;
31906;SDS011;18455;50.858;13.662;2023-02-24T11:08:42;2.80;;;2.50;;
31906;SDS011;18455;50.858;13.662;2023-02-24T11:13:48;3.63;;;2.63;;
31906;SDS011;18455;50.858;13.662;2023-02-24T11:19:09;4.37;;;2.90;;
31906;SDS011;18455;50.858;13.662;2023-02-24T11:24:12;7.33;;;3.43;;
31906;SDS011;18455;50.858;13.662;2023-02-24T11:29:19;4.83;;;3.50;;
31906;SDS011;18455;50.858;13.662;2023-02-24T11:40:03;8.40;;;4.50;;
31906;SDS011;18455;50.858;13.662;2023-02-24T11:45:11;6.53;;;3.97;;
31906;SDS011;18455;50.858;13.662;2023-02-24T11:55:35;10.50;;;6.03;;
31906;SDS011;18455;50.858;13.662;2023-02-24T12:00:40;10.87;;;6.20;;
31906;SDS011;18455;50.858;13.662;2023-02-24T12:05:49;13.17;;;7.03;;
31906;SDS011;18455;50.858;13.662;2023-02-24T12:10:55;6.97;;;5.13;;
31906;SDS011;18455;50.858;13.662;2023-02-24T12:16:17;6.63;;;4.77;;
31906;SDS011;18455;50.858;13.662;2023-02-24T12:21:28;5.80;;;3.93;;
31906;SDS011;18455;50.858;13.662;2023-02-24T12:48:20;7.77;;;4.93;;
31906;SDS011;18455;50.858;13.662;2023-02-24T12:53:37;10.67;;;5.17;;
31906;SDS011;18455;50.858;13.662;2023-02-24T12:58:44;7.53;;;5.33;;
31906;SDS011;18455;50.858;13.662;2023-02-24T13:09:13;7.30;;;5.80;;
31906;SDS011;18455;50.858;13.662;2023-02-24T13:19:31;11.77;;;5.93;;
31906;SDS011;18455;50.858;13.662;2023-02-24T13:24:32;10.53;;;5.93;;
31906;SDS011;18455;50.858;13.662;2023-02-24T13:34:52;10.97;;;6.27;;
31906;SDS011;18455;50.858;13.662;2023-02-24T13:39:54;11.10;;;6.37;;
31906;SDS011;18455;50.858;13.662;2023-02-24T13:50:10;12.40;;;7.97;;
31906;SDS011;18455;50.858;13.662;2023-02-24T14:05:52;8.90;;;6.57;;
31906;SDS011;18455;50.858;13.662;2023-02-24T14:10:56;12.13;;;6.93;;
31906;SDS011;18455;50.858;13.662;2023-02-24T14:15:57;9.73;;;6.63;;
31906;SDS011;18455;50.858;13.662;2023-02-24T14:20:59;11.57;;;5.87;;
31906;SDS011;18455;50.858;13.662;2023-02-24T14:26:00;11.40;;;6.70;;
31906;SDS011;18455;50.858;13.662;2023-02-24T14:31:12;10.33;;;6.20;;
31906;SDS011;18455;50.858;13.662;2023-02-24T14:36:25;10.23;;;5.93;;
31906;SDS011;18455;50.858;13.662;2023-02-24T14:41:28;12.40;;;6.63;;
31906;SDS011;18455;50.858;13.662;2023-02-24T14:46:28;11.33;;;6.00;;
31906;SDS011;18455;50.858;13.662;2023-02-24T14:51:32;9.87;;;5.93;;
31906;SDS011;18455;50.858;13.662;2023-02-24T14:56:34;12.50;;;6.07;;
31906;SDS011;18455;50.858;13.662;2023-02-24T15:01:36;10.93;;;6.37;;
31906;SDS011;18455;50.858;13.662;2023-02-24T15:06:40;12.57;;;6.77;;
31906;SDS011;18455;50.858;13.662;2023-02-24T15:11:41;9.60;;;6.10;;
31906;SDS011;18455;50.858;13.662;2023-02-24T15:16:42;11.33;;;6.57;;
31906;SDS011;18455;50.858;13.662;2023-02-24T15:21:44;9.67;;;6.27;;
31906;SDS011;18455;50.858;13.662;2023-02-24T15:26:55;12.70;;;6.40;;
31906;SDS011;18455;50.858;13.662;2023-02-24T15:31:57;11.63;;;6.17;;
31906;SDS011;18455;50.858;13.662;2023-02-24T15:36:59;12.53;;;6.60;;
31906;SDS011;18455;50.858;13.662;2023-02-24T15:42:06;12.30;;;7.23;;
31906;SDS011;18455;50.858;13.662;2023-02-24T15:47:21;8.97;;;5.87;;
31906;SDS011;18455;50.858;13.662;2023-02-24T15:52:27;13.37;;;6.53;;
31906;SDS011;18455;50.858;13.662;2023-02-24T15:57:28;11.73;;;6.60;;
31906;SDS011;18455;50.858;13.662;2023-02-24T16:02:29;18.37;;;7.13;;
31906;SDS011;18455;50.858;13.662;2023-02-24T16:07:30;12.83;;;6.67;;
31906;SDS011;18455;50.858;13.662;2023-02-24T16:12:36;12.23;;;6.40;;
31906;SDS011;18455;50.858;13.662;2023-02-24T16:17:41;15.07;;;7.50;;
31906;SDS011;18455;50.858;13.662;2023-02-24T16:22:42;12.83;;;7.77;;
31906;SDS011;18455;50.858;13.662;2023-02-24T16:27:42;11.47;;;6.57;;
31906;SDS011;18455;50.858;13.662;2023-02-24T16:32:43;12.63;;;7.20;;
31906;SDS011;18455;50.858;13.662;2023-02-24T16:37:44;17.87;;;7.53;;
31906;SDS011;18455;50.858;13.662;2023-02-24T16:42:46;13.17;;;6.87;;
31906;SDS011;18455;50.858;13.662;2023-02-24T16:47:47;15.57;;;7.57;;
31906;SDS011;18455;50.858;13.662;2023-02-24T16:52:48;13.60;;;7.30;;
31906;SDS011;18455;50.858;13.662;2023-02-24T16:57:48;14.60;;;6.87;;
31906;SDS011;18455;50.858;13.662;2023-02-24T17:02:49;18.67;;;8.43;;
31906;SDS011;18455;50.858;13.662;2023-02-24T17:07:50;15.70;;;8.13;;
31906;SDS011;18455;50.858;13.662;2023-02-24T17:12:53;17.00;;;9.57;;
31906;SDS011;18455;50.858;13.662;2023-02-24T17:17:53;13.63;;;8.43;;
31906;SDS011;18455;50.858;13.662;2023-02-24T17:22:53;16.13;;;8.37;;
31906;SDS011;18455;50.858;13.662;2023-02-24T17:27:54;18.93;;;10.00;;
31906;SDS011;18455;50.858;13.662;2023-02-24T17:32:55;18.27;;;9.53;;
31906;SDS011;18455;50.858;13.662;2023-02-24T17:37:55;22.80;;;12.40;;
31906;SDS011;18455;50.858;13.662;2023-02-24T17:42:55;35.63;;;14.10;;
31906;SDS011;18455;50.858;13.662;2023-02-24T17:47:56;18.97;;;10.77;;
31906;SDS011;18455;50.858;13.662;2023-02-24T17:52:56;30.13;;;17.53;;
31906;SDS011;18455;50.858;13.662;2023-02-24T17:57:58;16.53;;;10.00;;
31906;SDS011;18455;50.858;13.662;2023-02-24T18:02:59;16.90;;;10.97;;
31906;SDS011;18455;50.858;13.662;2023-02-24T18:07:59;20.13;;;12.17;;
31906;SDS011;18455;50.858;13.662;2023-02-24T18:12:59;19.00;;;12.57;;
31906;SDS011;18455;50.858;13.662;2023-02-24T18:18:00;18.87;;;10.93;;
31906;SDS011;18455;50.858;13.662;2023-02-24T18:23:00;20.40;;;12.33;;
31906;SDS011;18455;50.858;13.662;2023-02-24T18:28:00;11.37;;;7.53;;
31906;SDS011;18455;50.858;13.662;2023-02-24T18:33:01;10.57;;;6.07;;
31906;SDS011;18455;50.858;13.662;2023-02-24T18:38:02;9.00;;;6.00;;
31906;SDS011;18455;50.858;13.662;2023-02-24T18:43:02;9.60;;;6.27;;
31906;SDS011;18455;50.858;13.662;2023-02-24T18:48:03;5.10;;;4.27;;
31906;SDS011;18455;50.858;13.662;2023-02-24T18:53:04;6.77;;;4.63;;
31906;SDS011;18455;50.858;13.662;2023-02-24T18:58:04;5.17;;;4.13;;
31906;SDS011;18455;50.858;13.662;2023-02-24T19:03:04;4.97;;;4.23;;
31906;SDS011;18455;50.858;13.662;2023-02-24T19:08:05;4.87;;;3.77;;
31906;SDS011;18455;50.858;13.662;2023-02-24T19:13:05;4.63;;;3.27;;
31906;SDS011;18455;50.858;13.662;2023-02-24T19:18:06;4.27;;;3.87;;
31906;SDS011;18455;50.858;13.662;2023-02-24T19:23:06;3.73;;;2.97;;
31906;SDS011;18455;50.858;13.662;2023-02-24T19:28:07;3.43;;;2.77;;
31906;SDS011;18455;50.858;13.662;2023-02-24T19:33:07;3.47;;;3.17;;
31906;SDS011;18455;50.858;13.662;2023-02-24T19:38:17;3.53;;;2.67;;
31906;SDS011;18455;50.858;13.662;2023-02-24T19:43:19;3.50;;;2.83;;
31906;SDS011;18455;50.858;13.662;2023-02-24T19:48:20;3.63;;;3.33;;
31906;SDS011;18455;50.858;13.662;2023-02-24T19:53:20;3.20;;;2.50;;
31906;SDS011;18455;50.858;13.662;2023-02-24T19:58:20;5.13;;;3.17;;
31906;SDS011;18455;50.858;13.662;2023-02-24T20:03:21;3.77;;;3.17;;
31906;SDS011;18455;50.858;13.662;2023-02-24T20:08:21;4.23;;;3.30;;
31906;SDS011;18455;50.858;13.662;2023-02-24T20:13:22;4.00;;;3.10;;
31906;SDS011;18455;50.858;13.662;2023-02-24T20:18:22;3.57;;;3.27;;
31906;SDS011;18455;50.858;13.662;2023-02-24T20:23:22;4.57;;;3.93;;
31906;SDS011;18455;50.858;13.662;2023-02-24T20:28:23;7.30;;;5.17;;
31906;SDS011;18455;50.858;13.662;2023-02-24T20:33:25;13.20;;;7.60;;
31906;SDS011;18455;50.858;13.662;2023-02-24T20:38:26;9.43;;;7.53;;
31906;SDS011;18455;50.858;13.662;2023-02-24T20:43:28;10.60;;;7.80;;
31906;SDS011;18455;50.858;13.662;2023-02-24T20:48:28;11.53;;;8.80;;
31906;SDS011;18455;50.858;13.662;2023-02-24T20:53:28;12.07;;;8.97;;
31906;SDS011;18455;50.858;13.662;2023-02-24T20:58:30;15.03;;;8.90;;
31906;SDS011;18455;50.858;13.662;2023-02-24T21:03:30;15.17;;;9.63;;
31906;SDS011;18455;50.858;13.662;2023-02-24T21:08:31;13.80;;;9.17;;
31906;SDS011;18455;50.858;13.662;2023-02-24T21:13:31;18.47;;;9.77;;
31906;SDS011;18455;50.858;13.662;2023-02-24T21:18:32;16.40;;;10.63;;
31906;SDS011;18455;50.858;13.662;2023-02-24T21:23:33;16.57;;;10.73;;
31906;SDS011;18455;50.858;13.662;2023-02-24T21:28:34;22.83;;;10.97;;
31906;SDS011;18455;50.858;13.662;2023-02-24T21:33:35;19.40;;;11.30;;
31906;SDS011;18455;50.858;13.662;2023-02-24T21:38:35;17.23;;;11.67;;
31906;SDS011;18455;50.858;13.662;2023-02-24T21:43:36;19.47;;;12.33;;
31906;SDS011;18455;50.858;13.662;2023-02-24T21:48:38;18.23;;;10.87;;
31906;SDS011;18455;50.858;13.662;2023-02-24T21:53:40;20.83;;;12.00;;
31906;SDS011;18455;50.858;13.662;2023-02-24T21:58:43;19.70;;;12.20;;
31906;SDS011;18455;50.858;13.662;2023-02-24T22:03:58;19.23;;;13.17;;
31906;SDS011;18455;50.858;13.662;2023-02-24T22:09:01;20.27;;;12.40;;
31906;SDS011;18455;50.858;13.662;2023-02-24T22:14:03;23.23;;;11.53;;
31906;SDS011;18455;50.858;13.662;2023-02-24T22:19:05;20.70;;;11.20;;
31906;SDS011;18455;50.858;13.662;2023-02-24T22:24:06;15.97;;;9.87;;
31906;SDS011;18455;50.858;13.662;2023-02-24T22:29:06;17.27;;;10.30;;
31906;SDS011;18455;50.858;13.662;2023-02-24T22:34:07;14.97;;;10.27;;
31906;SDS011;18455;50.858;13.662;2023-02-24T22:39:07;13.70;;;9.90;;
31906;SDS011;18455;50.858;13.662;2023-02-24T22:44:08;13.67;;;9.63;;
31906;SDS011;18455;50.858;13.662;2023-02-24T22:49:09;17.37;;;10.73;;
31906;SDS011;18455;50.858;13.662;2023-02-24T22:54:09;17.03;;;12.23;;
31906;SDS011;18455;50.858;13.662;2023-02-24T22:59:10;18.30;;;10.80;;
31906;SDS011;18455;50.858;13.662;2023-02-24T23:04:12;16.53;;;10.23;;
31906;SDS011;18455;50.858;13.662;2023-02-24T23:09:15;16.30;;;11.57;;
31906;SDS011;18455;50.858;13.662;2023-02-24T23:14:18;18.10;;;10.53;;
31906;SDS011;18455;50.858;13.662;2023-02-24T23:19:19;17.03;;;10.13;;
31906;SDS011;18455;50.858;13.662;2023-02-24T23:24:21;16.43;;;10.60;;
31906;SDS011;18455;50.858;13.662;2023-02-24T23:29:21;14.67;;;8.47;;
31906;SDS011;18455;50.858;13.662;2023-02-24T23:34:23;15.20;;;10.23;;
31906;SDS011;18455;50.858;13.662;2023-02-24T23:39:23;14.17;;;9.37;;
31906;SDS011;18455;50.858;13.662;2023-02-24T23:44:24;14.03;;;9.00;;
31906;SDS011;18455;50.858;13.662;2023-02-24T23:49:24;11.87;;;7.23;;
31906;SDS011;18455;50.858;13.662;2023-02-24T23:54:25;9.43;;;6.37;;
31906;SDS011;18455;50.858;13.662;2023-02-24T23:59:25;10.20;;;6.33;;
